createdAt,value
2023-03-08T00:04:55.751Z,3.20
2023-03-08T00:07:23.879Z,2.70
2023-03-08T00:19:42.986Z,2.40
2023-03-08T00:22:11.455Z,2.60
2023-03-08T00:36:57.801Z,2.90
2023-03-08T00:46:51.769Z,2.50
2023-03-08T00:49:19.191Z,2.80
2023-03-08T00:51:46.516Z,2.90
2023-03-08T00:54:13.822Z,2.70
2023-03-08T00:56:41.634Z,2.40
2023-03-08T00:59:09.025Z,2.50
2023-03-08T01:06:31.833Z,2.70
2023-03-08T01:13:55.538Z,2.90
2023-03-08T01:16:26.210Z,2.60
2023-03-08T01:18:53.923Z,2.80
2023-03-08T01:21:22.281Z,2.70
2023-03-08T01:23:50.872Z,2.80
2023-03-08T01:26:23.885Z,3.30
2023-03-08T01:31:26.510Z,2.70
2023-03-08T01:36:24.850Z,3.00
2023-03-08T01:41:26.948Z,3.20
2023-03-08T01:46:29.359Z,2.80
2023-03-08T01:49:19.782Z,2.70
2023-03-08T01:52:17.353Z,2.70
2023-03-08T01:54:48.924Z,2.80
2023-03-08T01:57:25.148Z,2.50
2023-03-08T01:59:56.011Z,2.60
2023-03-08T02:02:28.499Z,2.90
2023-03-08T02:04:56.841Z,3.00
2023-03-08T02:07:26.362Z,2.80
2023-03-08T02:09:54.342Z,2.60
2023-03-08T02:12:22.614Z,3.20
2023-03-08T02:14:50.390Z,2.90
2023-03-08T02:17:17.667Z,3.10
2023-03-08T02:20:22.446Z,3.00
2023-03-08T02:22:53.194Z,2.90
2023-03-08T02:25:26.953Z,3.30
2023-03-08T02:27:55.012Z,3.00
2023-03-08T02:30:32.212Z,3.20
2023-03-08T02:32:59.602Z,2.90
2023-03-08T02:35:29.966Z,3.30
2023-03-08T02:37:57.427Z,2.90
2023-03-08T02:52:45.885Z,3.20
2023-03-08T03:00:10.259Z,3.40
2023-03-08T03:05:07.753Z,3.40
2023-03-08T03:07:39.760Z,3.40
2023-03-08T03:10:10.415Z,3.30
2023-03-08T03:12:37.731Z,3.50
2023-03-08T03:15:10.325Z,3.30
2023-03-08T03:20:09.019Z,4.20
2023-03-08T03:22:37.222Z,3.00
2023-03-08T03:25:07.160Z,2.70
2023-03-08T03:27:34.691Z,3.00
2023-03-08T03:32:30.888Z,3.40
2023-03-08T03:39:56.589Z,3.00
2023-03-08T03:47:29.440Z,2.80
2023-03-08T04:01:32.878Z,3.00
2023-03-08T04:04:26.474Z,3.00
2023-03-08T04:06:55.993Z,2.80
2023-03-08T04:09:27.870Z,2.80
2023-03-08T04:12:15.347Z,3.00
2023-03-08T04:14:42.671Z,2.70
2023-03-08T04:19:50.182Z,3.00
2023-03-08T04:25:04.007Z,2.80
2023-03-08T04:27:41.526Z,3.00
2023-03-08T04:30:09.576Z,2.90
2023-03-08T04:35:05.505Z,2.50
2023-03-08T04:40:09.924Z,1.60
2023-03-08T04:42:44.456Z,2.40
2023-03-08T04:45:15.453Z,2.50
2023-03-08T04:50:12.382Z,2.50
2023-03-08T04:52:39.934Z,2.70
2023-03-08T04:55:07.658Z,2.40
2023-03-08T04:57:35.840Z,2.40
2023-03-08T05:00:05.852Z,2.60
2023-03-08T05:05:09.415Z,2.50
2023-03-08T05:07:36.831Z,2.20
2023-03-08T05:10:04.504Z,2.30
2023-03-08T05:27:36.929Z,2.30
2023-03-08T05:37:34.422Z,2.00
2023-03-08T05:40:06.354Z,2.00
2023-03-08T05:42:36.597Z,2.30
2023-03-08T05:47:36.263Z,2.10
2023-03-08T05:55:05.809Z,2.00
2023-03-08T06:00:00.786Z,2.00
2023-03-08T06:04:58.625Z,2.30
2023-03-08T06:15:00.899Z,2.30
2023-03-08T06:19:59.716Z,2.10
2023-03-08T06:27:30.582Z,2.20
2023-03-08T06:37:33.217Z,2.20
2023-03-08T06:40:01.988Z,2.00
2023-03-08T06:45:10.324Z,2.10
2023-03-08T06:47:37.706Z,2.10
2023-03-08T06:52:37.683Z,2.20
2023-03-08T06:55:07.463Z,1.90
2023-03-08T06:57:34.779Z,2.10
2023-03-08T07:04:59.218Z,2.30
2023-03-08T07:12:21.996Z,2.30
2023-03-08T07:14:51.603Z,2.30
2023-03-08T07:17:19.663Z,2.10
2023-03-08T07:27:10.002Z,2.30
2023-03-08T07:34:32.734Z,2.40
2023-03-08T07:39:27.673Z,2.30
2023-03-08T07:54:13.044Z,2.30
2023-03-08T07:56:40.431Z,2.30
2023-03-08T07:59:07.818Z,2.20
2023-03-08T08:16:22.455Z,2.80
2023-03-08T08:18:52.520Z,2.80
2023-03-08T08:26:18.266Z,2.90
2023-03-08T08:28:48.172Z,2.70
2023-03-08T08:31:18.271Z,2.80
2023-03-08T08:36:15.862Z,2.90
2023-03-08T08:41:15.406Z,2.90
2023-03-08T08:48:39.826Z,3.00
2023-03-08T08:51:08.837Z,3.00
2023-03-08T08:56:30.538Z,3.00
2023-03-08T08:59:02.346Z,3.10
2023-03-08T09:01:32.585Z,1.30
2023-03-08T09:06:29.645Z,3.10
2023-03-08T09:08:59.098Z,3.00
2023-03-08T09:11:27.853Z,3.00
2023-03-08T09:13:55.989Z,3.00
2023-03-08T09:16:34.318Z,3.00
2023-03-08T09:19:03.988Z,2.90
2023-03-08T09:24:01.755Z,2.80
2023-03-08T09:26:32.878Z,3.20
2023-03-08T09:31:34.841Z,3.20
2023-03-08T09:41:50.375Z,2.80
2023-03-08T09:45:02.632Z,3.20
2023-03-08T09:47:41.991Z,3.30
2023-03-08T09:50:19.691Z,3.40
2023-03-08T09:53:05.729Z,3.40
2023-03-08T09:55:36.020Z,3.40
2023-03-08T09:58:16.953Z,3.30
2023-03-08T10:05:51.160Z,3.40
2023-03-08T10:08:26.707Z,3.60
2023-03-08T10:11:16.320Z,3.30
2023-03-08T10:13:50.192Z,3.20
2023-03-08T10:16:29.967Z,3.20
2023-03-08T10:19:13.502Z,3.10
2023-03-08T10:21:43.183Z,3.30
2023-03-08T10:24:26.684Z,3.40
2023-03-08T10:27:21.790Z,3.40
2023-03-08T10:29:58.421Z,3.40
2023-03-08T10:32:27.567Z,3.20
2023-03-08T10:35:04.979Z,3.50
2023-03-08T10:37:33.628Z,3.40
2023-03-08T10:40:05.917Z,3.40
2023-03-08T10:42:35.089Z,3.50
2023-03-08T10:45:16.666Z,3.50
2023-03-08T10:47:54.918Z,3.60
2023-03-08T10:50:25.868Z,4.40
2023-03-08T10:52:53.365Z,3.50
2023-03-08T10:55:31.740Z,3.80
2023-03-08T10:58:01.003Z,3.70
2023-03-08T11:00:36.746Z,3.70
2023-03-08T11:03:19.394Z,3.60
2023-03-08T11:06:14.015Z,3.60
2023-03-08T11:08:53.834Z,3.80
2023-03-08T11:11:21.700Z,3.60
2023-03-08T11:13:51.817Z,3.80
2023-03-08T11:16:28.985Z,3.80
2023-03-08T11:19:32.673Z,3.80
2023-03-08T11:22:09.719Z,3.90
2023-03-08T11:24:55.703Z,4.00
2023-03-08T11:27:48.600Z,4.00
2023-03-08T11:30:21.655Z,4.10
2023-03-08T11:33:13.889Z,3.80
2023-03-08T11:35:51.383Z,3.90
2023-03-08T11:38:25.433Z,3.70
2023-03-08T11:41:10.830Z,4.10
2023-03-08T11:44:15.776Z,3.90
2023-03-08T11:46:58.136Z,3.90
2023-03-08T11:49:34.332Z,3.80
2023-03-08T11:52:35.635Z,3.90
2023-03-08T11:55:20.653Z,3.90
2023-03-08T11:58:09.530Z,4.10
2023-03-08T12:00:43.258Z,3.90
2023-03-08T12:03:21.698Z,4.00
2023-03-08T12:06:22.699Z,4.20
2023-03-08T12:09:01.322Z,4.00
2023-03-08T12:11:54.942Z,4.30
2023-03-08T12:14:34.577Z,4.20
2023-03-08T12:17:27.458Z,3.90
2023-03-08T12:19:56.153Z,5.30
2023-03-08T12:25:12.454Z,4.00
2023-03-08T12:27:54.784Z,4.40
2023-03-08T12:30:58.793Z,3.90
2023-03-08T12:33:27.724Z,4.20
2023-03-08T12:36:03.301Z,4.30
2023-03-08T12:38:42.472Z,4.30
2023-03-08T12:41:24.596Z,4.30
2023-03-08T12:44:04.778Z,4.10
2023-03-08T12:47:02.225Z,4.20
2023-03-08T12:49:35.371Z,3.90
2023-03-08T12:52:17.966Z,4.10
2023-03-08T12:55:21.874Z,4.10
2023-03-08T12:57:54.888Z,3.90
2023-03-08T13:00:28.336Z,4.00
2023-03-08T13:03:04.541Z,3.90
2023-03-08T13:05:37.434Z,3.80
2023-03-08T13:08:14.131Z,4.00
2023-03-08T13:10:52.914Z,4.00
2023-03-08T13:13:49.329Z,4.40
2023-03-08T13:16:30.475Z,4.20
2023-03-08T13:19:17.890Z,4.40
2023-03-08T13:21:54.448Z,4.00
2023-03-08T13:24:47.043Z,4.10
2023-03-08T13:27:27.641Z,4.10
2023-03-08T13:30:08.981Z,4.00
2023-03-08T13:35:05.374Z,4.40
2023-03-08T13:40:00.999Z,4.00
2023-03-08T13:42:29.359Z,4.20
2023-03-08T13:45:16.806Z,4.50
2023-03-08T13:47:45.967Z,4.30
2023-03-08T13:50:27.386Z,4.30
2023-03-08T13:52:55.329Z,4.10
2023-03-08T13:55:34.513Z,4.30
2023-03-08T13:58:03.045Z,4.40
2023-03-08T14:00:33.596Z,4.00
2023-03-08T14:03:03.615Z,4.40
2023-03-08T14:05:34.750Z,4.40
2023-03-08T14:08:07.331Z,4.10
2023-03-08T14:10:41.812Z,4.40
2023-03-08T14:13:19.322Z,4.20
2023-03-08T14:15:56.993Z,4.10
2023-03-08T14:18:29.024Z,4.20
2023-03-08T14:21:16.653Z,4.30
2023-03-08T14:24:02.888Z,4.20
2023-03-08T14:26:40.955Z,4.10
2023-03-08T14:29:17.925Z,5.00
2023-03-08T14:32:04.583Z,4.20
2023-03-08T14:34:36.408Z,4.20
2023-03-08T14:37:12.341Z,4.30
2023-03-08T14:39:42.878Z,4.10
2023-03-08T14:42:24.389Z,4.10
2023-03-08T14:44:59.620Z,3.90
2023-03-08T14:47:32.403Z,4.30
2023-03-08T14:50:32.874Z,4.00
2023-03-08T14:53:02.488Z,4.30
2023-03-08T14:55:35.600Z,4.20
2023-03-08T14:58:12.716Z,4.60
2023-03-08T15:00:50.916Z,4.90
2023-03-08T15:08:15.633Z,4.40
2023-03-08T15:13:16.897Z,4.10
2023-03-08T15:15:45.254Z,4.40
2023-03-08T15:18:12.929Z,4.50
2023-03-08T15:20:46.470Z,4.20
2023-03-08T15:23:29.744Z,4.20
2023-03-08T15:25:59.299Z,4.00
2023-03-08T15:33:22.948Z,4.30
2023-03-08T15:35:50.940Z,4.20
2023-03-08T15:38:19.569Z,4.10
2023-03-08T15:43:14.420Z,3.90
2023-03-08T15:48:15.654Z,4.10
2023-03-08T15:50:44.116Z,2.80
2023-03-08T15:53:12.703Z,3.80
2023-03-08T15:55:41.127Z,4.00
2023-03-08T15:58:09.556Z,4.40
2023-03-08T16:03:06.853Z,4.10
2023-03-08T16:05:34.092Z,4.00
2023-03-08T16:08:02.983Z,4.30
2023-03-08T16:10:37.526Z,4.40
2023-03-08T16:27:51.709Z,3.80
2023-03-08T16:30:19.536Z,4.20
2023-03-08T16:32:46.912Z,4.30
2023-03-08T16:35:14.450Z,4.10
2023-03-08T16:37:41.800Z,4.00
2023-03-08T16:40:10.991Z,4.20
2023-03-08T16:42:38.284Z,3.70
2023-03-08T16:45:06.376Z,3.80
2023-03-08T16:47:33.725Z,4.00
2023-03-08T16:50:01.178Z,3.70
2023-03-08T16:54:57.019Z,4.00
2023-03-08T16:59:53.210Z,4.00
2023-03-08T17:02:21.634Z,3.90
2023-03-08T17:04:50.130Z,3.80
2023-03-08T17:07:17.767Z,3.80
2023-03-08T17:09:46.401Z,4.10
2023-03-08T17:12:14.109Z,3.90
2023-03-08T17:14:41.480Z,3.80
2023-03-08T17:17:10.416Z,4.00
2023-03-08T17:19:40.908Z,3.60
2023-03-08T17:22:09.168Z,3.80
2023-03-08T17:24:36.787Z,3.80
2023-03-08T17:27:04.537Z,3.90
2023-03-08T17:29:31.867Z,4.00
2023-03-08T17:31:59.369Z,3.70
2023-03-08T17:36:54.309Z,3.90
2023-03-08T17:41:49.360Z,3.80
2023-03-08T17:44:16.669Z,4.00
2023-03-08T17:46:43.999Z,4.10
2023-03-08T17:49:13.212Z,4.10
2023-03-08T17:51:42.546Z,3.70
2023-03-08T17:56:40.828Z,4.10
2023-03-08T17:59:08.300Z,3.80
2023-03-08T18:01:35.617Z,3.90
2023-03-08T18:04:05.104Z,4.00
2023-03-08T18:06:35.338Z,3.90
2023-03-08T18:09:09.659Z,4.00
2023-03-08T18:14:06.357Z,4.00
2023-03-08T18:16:34.854Z,4.10
2023-03-08T18:19:02.782Z,4.00
2023-03-08T18:21:33.009Z,4.00
2023-03-08T18:28:55.675Z,4.10
2023-03-08T18:31:26.049Z,4.40
2023-03-08T18:33:55.044Z,4.30
2023-03-08T18:36:23.341Z,3.70
2023-03-08T18:38:51.033Z,3.70
2023-03-08T18:41:26.153Z,3.90
2023-03-08T18:43:54.984Z,4.20
2023-03-08T18:46:30.192Z,3.80
2023-03-08T18:48:59.051Z,3.90
2023-03-08T18:51:30.564Z,4.00
2023-03-08T18:53:58.842Z,4.00
2023-03-08T18:56:27.221Z,4.20
2023-03-08T18:58:55.970Z,4.40
2023-03-08T19:01:24.387Z,4.30
2023-03-08T19:03:52.895Z,4.30
2023-03-08T19:06:21.503Z,4.20
2023-03-08T19:08:48.931Z,3.90
2023-03-08T19:11:18.004Z,4.20
2023-03-08T19:13:45.680Z,4.20
2023-03-08T19:16:19.097Z,3.80
2023-03-08T19:18:47.411Z,3.90
2023-03-08T19:21:19.879Z,4.10
2023-03-08T19:23:47.796Z,4.00
2023-03-08T19:26:38.297Z,4.00
2023-03-08T19:29:14.293Z,4.60
2023-03-08T19:31:54.425Z,4.10
2023-03-08T19:34:25.008Z,4.00
2023-03-08T19:36:52.985Z,4.10
2023-03-08T19:39:23.433Z,4.00
2023-03-08T19:41:52.709Z,4.00
2023-03-08T19:44:21.083Z,4.00
2023-03-08T19:46:48.921Z,4.10
2023-03-08T19:49:22.680Z,4.00
2023-03-08T19:51:51.756Z,4.00
2023-03-08T19:54:20.100Z,4.10
2023-03-08T19:56:47.942Z,4.00
2023-03-08T19:59:15.540Z,3.90
2023-03-08T20:01:43.589Z,4.00
2023-03-08T20:04:11.434Z,4.00
2023-03-08T20:06:46.057Z,4.00
2023-03-08T20:09:21.669Z,3.90
2023-03-08T20:11:53.199Z,3.90
2023-03-08T20:14:24.456Z,3.90
2023-03-08T20:16:51.892Z,4.00
2023-03-08T20:19:19.473Z,4.00
2023-03-08T20:21:46.907Z,4.00
2023-03-08T20:24:14.501Z,4.00
2023-03-08T20:26:42.117Z,3.90
2023-03-08T20:29:09.681Z,4.00
2023-03-08T20:31:37.036Z,4.00
2023-03-08T20:34:04.396Z,4.00
2023-03-08T20:36:31.820Z,3.90
2023-03-08T20:38:59.531Z,4.00
2023-03-08T20:41:30.166Z,3.90
2023-03-08T20:43:57.606Z,4.00
2023-03-08T20:46:27.883Z,4.10
2023-03-08T20:51:24.366Z,4.10
2023-03-08T20:53:53.410Z,4.10
2023-03-08T20:56:22.537Z,4.10
2023-03-08T20:58:50.240Z,4.20
2023-03-08T21:01:20.561Z,4.20
2023-03-08T21:03:48.847Z,4.40
2023-03-08T21:06:21.847Z,4.30
2023-03-08T21:08:49.882Z,4.30
2023-03-08T21:11:18.151Z,4.30
2023-03-08T21:13:47.953Z,4.30
2023-03-08T21:16:17.241Z,4.30
2023-03-08T21:18:48.290Z,4.30
2023-03-08T21:21:24.466Z,4.30
2023-03-08T21:23:54.326Z,4.30
2023-03-08T21:26:26.112Z,4.30
2023-03-08T21:28:56.485Z,4.20
2023-03-08T21:31:24.468Z,4.10
2023-03-08T21:33:53.462Z,4.20
2023-03-08T21:36:20.839Z,4.40
2023-03-08T21:38:53.142Z,4.20
2023-03-08T21:41:22.832Z,4.30
2023-03-08T21:43:50.401Z,4.40
2023-03-08T21:46:18.355Z,4.50
2023-03-08T21:48:46.780Z,4.90
2023-03-08T21:51:14.502Z,4.20
2023-03-08T21:53:42.660Z,4.20
2023-03-08T21:56:11.641Z,4.30
2023-03-08T21:58:39.079Z,4.10
2023-03-08T22:01:07.126Z,4.30
2023-03-08T22:03:34.750Z,4.20
2023-03-08T22:06:02.022Z,4.50
2023-03-08T22:08:29.281Z,5.00
2023-03-08T22:10:56.533Z,4.20
2023-03-08T22:13:23.795Z,5.00
2023-03-08T22:15:51.207Z,4.30
2023-03-08T22:18:18.528Z,4.40
2023-03-08T22:20:45.792Z,4.30
2023-03-08T22:23:13.102Z,4.40
2023-03-08T22:25:40.335Z,4.70
2023-03-08T22:28:07.828Z,4.30
2023-03-08T22:30:35.076Z,4.30
2023-03-08T22:33:02.362Z,4.40
2023-03-08T22:35:29.746Z,4.30
2023-03-08T22:37:57.159Z,4.30
2023-03-08T22:40:24.485Z,4.10
2023-03-08T22:42:51.850Z,4.40
2023-03-08T22:45:19.235Z,4.40
2023-03-08T22:47:46.503Z,4.40
2023-03-08T22:50:14.117Z,4.50
2023-03-08T22:52:41.825Z,4.50
2023-03-08T22:55:10.943Z,3.90
2023-03-08T22:57:38.440Z,4.30
2023-03-08T23:00:14.395Z,4.20
2023-03-08T23:02:43.174Z,4.30
2023-03-08T23:05:15.501Z,4.20
2023-03-08T23:07:42.984Z,4.40
2023-03-08T23:10:11.780Z,4.30
2023-03-08T23:12:39.228Z,4.40
2023-03-08T23:15:07.532Z,4.40
2023-03-08T23:17:35.112Z,4.20
2023-03-08T23:20:03.882Z,4.20
2023-03-08T23:22:31.353Z,4.30
2023-03-08T23:24:58.689Z,4.20
2023-03-08T23:27:26.344Z,4.60
2023-03-08T23:29:54.142Z,4.20
2023-03-08T23:32:21.829Z,4.50
2023-03-08T23:34:49.188Z,4.50
2023-03-08T23:37:16.450Z,4.30
2023-03-08T23:39:43.858Z,4.40
2023-03-08T23:42:11.137Z,4.40
2023-03-08T23:44:38.728Z,4.30
2023-03-08T23:47:06.238Z,4.40
2023-03-08T23:49:33.707Z,4.30
2023-03-08T23:52:01.050Z,4.40
2023-03-08T23:56:55.931Z,4.30
2023-03-08T23:59:23.516Z,4.40
